sensor_id;sensor_type;location;lat;lon;timestamp;temperature;humidity
26479;DHT22;14163;-26.142;27.992;2022-08-05T00:00:39;17.90;99.90
26479;DHT22;14163;-26.142;27.992;2022-08-05T00:03:10;17.90;99.90
26479;DHT22;14163;-26.142;27.992;2022-08-05T00:05:39;17.90;99.90
26479;DHT22;14163;-26.142;27.992;2022-08-05T00:08:09;17.90;99.90
26479;DHT22;14163;-26.142;27.992;2022-08-05T00:10:38;17.90;99.90
26479;DHT22;14163;-26.142;27.992;2022-08-05T00:13:07;17.90;99.90
26479;DHT22;14163;-26.142;27.992;2022-08-05T00:15:37;17.90;99.90
26479;DHT22;14163;-26.142;27.992;2022-08-05T00:18:06;17.90;99.90
26479;DHT22;14163;-26.142;27.992;2022-08-05T00:20:37;17.90;99.90
26479;DHT22;14163;-26.142;27.992;2022-08-05T00:23:06;17.90;99.90
26479;DHT22;14163;-26.142;27.992;2022-08-05T00:25:36;17.90;99.90
26479;DHT22;14163;-26.142;27.992;2022-08-05T00:28:05;17.80;99.90
26479;DHT22;14163;-26.142;27.992;2022-08-05T00:30:34;17.70;99.90
26479;DHT22;14163;-26.142;27.992;2022-08-05T00:33:04;17.60;99.90
26479;DHT22;14163;-26.142;27.992;2022-08-05T00:35:33;17.50;99.90
26479;DHT22;14163;-26.142;27.992;2022-08-05T00:38:04;17.40;99.90
26479;DHT22;14163;-26.142;27.992;2022-08-05T00:40:44;17.20;99.90
26479;DHT22;14163;-26.142;27.992;2022-08-05T00:43:14;17.10;99.90
26479;DHT22;14163;-26.142;27.992;2022-08-05T00:45:43;17.00;99.90
26479;DHT22;14163;-26.142;27.992;2022-08-05T00:48:14;17.00;99.90
26479;DHT22;14163;-26.142;27.992;2022-08-05T00:50:45;17.00;99.90
26479;DHT22;14163;-26.142;27.992;2022-08-05T00:53:18;17.00;99.90
26479;DHT22;14163;-26.142;27.992;2022-08-05T00:55:48;17.00;99.90
26479;DHT22;14163;-26.142;27.992;2022-08-05T00:58:18;17.00;99.90
26479;DHT22;14163;-26.142;27.992;2022-08-05T01:00:47;17.10;99.90
26479;DHT22;14163;-26.142;27.992;2022-08-05T01:03:16;17.10;99.90
26479;DHT22;14163;-26.142;27.992;2022-08-05T01:05:45;17.00;99.90
26479;DHT22;14163;-26.142;27.992;2022-08-05T01:08:16;16.90;99.90
26479;DHT22;14163;-26.142;27.992;2022-08-05T01:10:50;16.90;99.90
26479;DHT22;14163;-26.142;27.992;2022-08-05T01:13:28;16.90;99.90
26479;DHT22;14163;-26.142;27.992;2022-08-05T01:16:02;16.80;99.90
26479;DHT22;14163;-26.142;27.992;2022-08-05T01:18:35;16.80;99.90
26479;DHT22;14163;-26.142;27.992;2022-08-05T01:21:11;16.80;99.90
26479;DHT22;14163;-26.142;27.992;2022-08-05T01:23:57;16.80;99.90
26479;DHT22;14163;-26.142;27.992;2022-08-05T01:26:43;16.80;99.90
26479;DHT22;14163;-26.142;27.992;2022-08-05T01:29:20;16.80;99.90
26479;DHT22;14163;-26.142;27.992;2022-08-05T01:31:55;16.70;99.90
26479;DHT22;14163;-26.142;27.992;2022-08-05T01:34:29;16.60;99.90
26479;DHT22;14163;-26.142;27.992;2022-08-05T01:37:02;16.60;99.90
26479;DHT22;14163;-26.142;27.992;2022-08-05T01:39:34;16.60;99.90
26479;DHT22;14163;-26.142;27.992;2022-08-05T01:42:05;16.60;99.90
26479;DHT22;14163;-26.142;27.992;2022-08-05T01:44:37;16.60;99.90
26479;DHT22;14163;-26.142;27.992;2022-08-05T01:47:07;16.60;99.90
26479;DHT22;14163;-26.142;27.992;2022-08-05T01:49:39;16.60;99.90
26479;DHT22;14163;-26.142;27.992;2022-08-05T01:52:11;16.60;99.90
26479;DHT22;14163;-26.142;27.992;2022-08-05T01:54:45;16.50;99.90
26479;DHT22;14163;-26.142;27.992;2022-08-05T01:57:19;16.50;99.90
26479;DHT22;14163;-26.142;27.992;2022-08-05T01:59:57;16.50;99.90
26479;DHT22;14163;-26.142;27.992;2022-08-05T02:02:28;16.50;99.90
26479;DHT22;14163;-26.142;27.992;2022-08-05T02:05:02;16.50;99.90
26479;DHT22;14163;-26.142;27.992;2022-08-05T02:07:32;16.50;99.90
26479;DHT22;14163;-26.142;27.992;2022-08-05T02:10:03;16.50;99.90
26479;DHT22;14163;-26.142;27.992;2022-08-05T02:12:37;16.60;99.90
26479;DHT22;14163;-26.142;27.992;2022-08-05T02:15:16;16.60;99.90
26479;DHT22;14163;-26.142;27.992;2022-08-05T02:17:51;16.60;99.90
26479;DHT22;14163;-26.142;27.992;2022-08-05T02:20:22;16.60;99.90
26479;DHT22;14163;-26.142;27.992;2022-08-05T02:22:55;16.50;99.90
26479;DHT22;14163;-26.142;27.992;2022-08-05T02:25:27;16.50;99.90
26479;DHT22;14163;-26.142;27.992;2022-08-05T02:27:59;16.50;99.90
26479;DHT22;14163;-26.142;27.992;2022-08-05T02:30:36;16.50;99.90
26479;DHT22;14163;-26.142;27.992;2022-08-05T02:33:08;16.50;99.90
26479;DHT22;14163;-26.142;27.992;2022-08-05T02:35:38;16.50;99.90
26479;DHT22;14163;-26.142;27.992;2022-08-05T02:38:10;16.50;99.90
26479;DHT22;14163;-26.142;27.992;2022-08-05T02:40:41;16.50;99.90
26479;DHT22;14163;-26.142;27.992;2022-08-05T02:43:12;16.40;99.90
26479;DHT22;14163;-26.142;27.992;2022-08-05T02:45:46;16.40;99.90
26479;DHT22;14163;-26.142;27.992;2022-08-05T02:48:17;16.40;99.90
26479;DHT22;14163;-26.142;27.992;2022-08-05T02:50:46;16.40;99.90
26479;DHT22;14163;-26.142;27.992;2022-08-05T02:53:17;16.40;99.90
26479;DHT22;14163;-26.142;27.992;2022-08-05T02:55:48;16.40;99.90
26479;DHT22;14163;-26.142;27.992;2022-08-05T02:58:20;16.30;99.90
26479;DHT22;14163;-26.142;27.992;2022-08-05T03:00:52;16.30;99.90
26479;DHT22;14163;-26.142;27.992;2022-08-05T03:03:23;16.30;99.90
26479;DHT22;14163;-26.142;27.992;2022-08-05T03:05:54;16.30;99.90
26479;DHT22;14163;-26.142;27.992;2022-08-05T03:08:24;16.30;99.90
26479;DHT22;14163;-26.142;27.992;2022-08-05T03:10:54;16.30;99.90
26479;DHT22;14163;-26.142;27.992;2022-08-05T03:13:23;16.40;99.90
26479;DHT22;14163;-26.142;27.992;2022-08-05T03:15:54;16.40;99.90
26479;DHT22;14163;-26.142;27.992;2022-08-05T03:18:23;16.50;99.90
26479;DHT22;14163;-26.142;27.992;2022-08-05T03:20:53;16.50;99.90
26479;DHT22;14163;-26.142;27.992;2022-08-05T03:23:22;16.50;99.90
26479;DHT22;14163;-26.142;27.992;2022-08-05T03:25:51;16.50;99.90
26479;DHT22;14163;-26.142;27.992;2022-08-05T03:28:21;16.50;99.90
26479;DHT22;14163;-26.142;27.992;2022-08-05T03:30:50;16.50;99.90
26479;DHT22;14163;-26.142;27.992;2022-08-05T03:33:21;16.40;99.90
26479;DHT22;14163;-26.142;27.992;2022-08-05T03:35:51;16.40;99.90
26479;DHT22;14163;-26.142;27.992;2022-08-05T03:38:20;16.40;99.90
26479;DHT22;14163;-26.142;27.992;2022-08-05T03:40:49;16.40;99.90
26479;DHT22;14163;-26.142;27.992;2022-08-05T03:43:20;16.40;99.90
26479;DHT22;14163;-26.142;27.992;2022-08-05T03:45:50;16.30;99.90
26479;DHT22;14163;-26.142;27.992;2022-08-05T03:48:21;16.30;99.90
26479;DHT22;14163;-26.142;27.992;2022-08-05T03:50:52;16.30;99.90
26479;DHT22;14163;-26.142;27.992;2022-08-05T03:53:28;16.30;99.90
26479;DHT22;14163;-26.142;27.992;2022-08-05T03:56:02;16.30;99.90
26479;DHT22;14163;-26.142;27.992;2022-08-05T03:58:35;16.30;99.90
26479;DHT22;14163;-26.142;27.992;2022-08-05T04:01:06;16.30;99.90
26479;DHT22;14163;-26.142;27.992;2022-08-05T04:03:39;16.40;99.90
26479;DHT22;14163;-26.142;27.992;2022-08-05T04:06:10;16.40;99.90
26479;DHT22;14163;-26.142;27.992;2022-08-05T04:08:40;16.40;99.90
26479;DHT22;14163;-26.142;27.992;2022-08-05T04:11:10;16.30;99.90
26479;DHT22;14163;-26.142;27.992;2022-08-05T04:13:40;16.30;99.90
26479;DHT22;14163;-26.142;27.992;2022-08-05T04:16:11;16.20;99.90
26479;DHT22;14163;-26.142;27.992;2022-08-05T04:18:44;16.10;99.90
26479;DHT22;14163;-26.142;27.992;2022-08-05T04:21:14;16.10;99.90
26479;DHT22;14163;-26.142;27.992;2022-08-05T04:23:44;16.00;99.90
26479;DHT22;14163;-26.142;27.992;2022-08-05T04:26:14;16.00;99.90
26479;DHT22;14163;-26.142;27.992;2022-08-05T04:28:43;16.00;99.90
26479;DHT22;14163;-26.142;27.992;2022-08-05T04:31:13;16.00;99.90
26479;DHT22;14163;-26.142;27.992;2022-08-05T04:33:44;16.00;99.90
26479;DHT22;14163;-26.142;27.992;2022-08-05T04:36:13;16.00;99.90
26479;DHT22;14163;-26.142;27.992;2022-08-05T04:38:43;15.90;99.90
26479;DHT22;14163;-26.142;27.992;2022-08-05T04:41:12;15.90;99.90
26479;DHT22;14163;-26.142;27.992;2022-08-05T04:43:42;15.80;99.90
26479;DHT22;14163;-26.142;27.992;2022-08-05T04:46:11;15.80;99.90
26479;DHT22;14163;-26.142;27.992;2022-08-05T04:48:42;15.80;99.90
26479;DHT22;14163;-26.142;27.992;2022-08-05T04:51:11;15.80;99.90
26479;DHT22;14163;-26.142;27.992;2022-08-05T04:53:40;15.70;99.90
26479;DHT22;14163;-26.142;27.992;2022-08-05T04:56:09;15.70;99.90
26479;DHT22;14163;-26.142;27.992;2022-08-05T04:58:40;15.70;99.90
26479;DHT22;14163;-26.142;27.992;2022-08-05T05:01:09;15.60;99.90
26479;DHT22;14163;-26.142;27.992;2022-08-05T05:03:39;15.70;99.90
26479;DHT22;14163;-26.142;27.992;2022-08-05T05:06:12;15.70;99.90
26479;DHT22;14163;-26.142;27.992;2022-08-05T05:08:41;15.60;99.90
26479;DHT22;14163;-26.142;27.992;2022-08-05T05:11:10;15.60;99.90
26479;DHT22;14163;-26.142;27.992;2022-08-05T05:13:39;15.60;99.90
26479;DHT22;14163;-26.142;27.992;2022-08-05T05:16:09;15.60;99.90
26479;DHT22;14163;-26.142;27.992;2022-08-05T05:18:38;15.70;99.90
26479;DHT22;14163;-26.142;27.992;2022-08-05T05:21:07;15.70;99.90
26479;DHT22;14163;-26.142;27.992;2022-08-05T05:23:38;15.80;99.90
26479;DHT22;14163;-26.142;27.992;2022-08-05T05:26:07;15.80;99.90
26479;DHT22;14163;-26.142;27.992;2022-08-05T05:28:36;15.80;99.90
26479;DHT22;14163;-26.142;27.992;2022-08-05T05:31:05;15.90;99.90
26479;DHT22;14163;-26.142;27.992;2022-08-05T05:33:34;15.90;99.90
26479;DHT22;14163;-26.142;27.992;2022-08-05T05:36:04;16.00;99.90
26479;DHT22;14163;-26.142;27.992;2022-08-05T05:38:33;16.00;99.90
26479;DHT22;14163;-26.142;27.992;2022-08-05T05:41:04;16.00;99.90
26479;DHT22;14163;-26.142;27.992;2022-08-05T05:43:34;16.10;99.90
26479;DHT22;14163;-26.142;27.992;2022-08-05T05:46:03;16.20;99.90
26479;DHT22;14163;-26.142;27.992;2022-08-05T05:48:33;16.20;99.90
26479;DHT22;14163;-26.142;27.992;2022-08-05T05:51:02;16.30;99.90
26479;DHT22;14163;-26.142;27.992;2022-08-05T05:53:31;16.40;99.90
26479;DHT22;14163;-26.142;27.992;2022-08-05T05:56:01;16.40;99.90
26479;DHT22;14163;-26.142;27.992;2022-08-05T05:58:32;16.50;99.90
26479;DHT22;14163;-26.142;27.992;2022-08-05T06:01:01;16.60;99.90
26479;DHT22;14163;-26.142;27.992;2022-08-05T06:03:30;16.70;99.90
26479;DHT22;14163;-26.142;27.992;2022-08-05T06:05:59;16.80;99.90
26479;DHT22;14163;-26.142;27.992;2022-08-05T06:08:28;16.80;99.90
26479;DHT22;14163;-26.142;27.992;2022-08-05T06:10:57;16.90;99.90
26479;DHT22;14163;-26.142;27.992;2022-08-05T06:13:27;16.90;99.90
26479;DHT22;14163;-26.142;27.992;2022-08-05T06:15:58;17.00;99.90
26479;DHT22;14163;-26.142;27.992;2022-08-05T06:18:28;17.00;99.90
26479;DHT22;14163;-26.142;27.992;2022-08-05T06:20:57;17.10;99.90
26479;DHT22;14163;-26.142;27.992;2022-08-05T06:23:26;17.10;99.90
26479;DHT22;14163;-26.142;27.992;2022-08-05T06:25:55;17.20;99.90
26479;DHT22;14163;-26.142;27.992;2022-08-05T06:28:25;17.20;99.90
26479;DHT22;14163;-26.142;27.992;2022-08-05T06:30:54;17.30;99.90
26479;DHT22;14163;-26.142;27.992;2022-08-05T06:33:25;17.40;99.90
26479;DHT22;14163;-26.142;27.992;2022-08-05T06:35:54;17.40;99.90
26479;DHT22;14163;-26.142;27.992;2022-08-05T06:38:23;17.50;99.90
26479;DHT22;14163;-26.142;27.992;2022-08-05T06:40:53;17.50;99.90
26479;DHT22;14163;-26.142;27.992;2022-08-05T06:43:22;17.50;99.90
26479;DHT22;14163;-26.142;27.992;2022-08-05T06:45:51;17.60;99.90
26479;DHT22;14163;-26.142;27.992;2022-08-05T06:48:20;17.60;99.90
26479;DHT22;14163;-26.142;27.992;2022-08-05T06:50:51;17.60;99.90
26479;DHT22;14163;-26.142;27.992;2022-08-05T06:53:21;17.60;99.90
26479;DHT22;14163;-26.142;27.992;2022-08-05T06:55:50;17.70;99.90
26479;DHT22;14163;-26.142;27.992;2022-08-05T06:58:19;17.70;99.90
26479;DHT22;14163;-26.142;27.992;2022-08-05T07:00:48;17.80;99.90
26479;DHT22;14163;-26.142;27.992;2022-08-05T07:03:18;17.80;99.90
26479;DHT22;14163;-26.142;27.992;2022-08-05T07:05:47;17.90;99.90
26479;DHT22;14163;-26.142;27.992;2022-08-05T07:08:18;17.90;99.90
26479;DHT22;14163;-26.142;27.992;2022-08-05T07:10:48;17.90;99.90
26479;DHT22;14163;-26.142;27.992;2022-08-05T07:13:18;17.90;99.90
26479;DHT22;14163;-26.142;27.992;2022-08-05T07:16:03;18.00;99.90
26479;DHT22;14163;-26.142;27.992;2022-08-05T07:18:49;18.10;99.90
26479;DHT22;14163;-26.142;27.992;2022-08-05T07:21:18;18.20;99.90
26479;DHT22;14163;-26.142;27.992;2022-08-05T07:23:49;18.30;99.90
26479;DHT22;14163;-26.142;27.992;2022-08-05T07:26:18;18.30;99.90
26479;DHT22;14163;-26.142;27.992;2022-08-05T07:28:48;18.40;99.90
26479;DHT22;14163;-26.142;27.992;2022-08-05T07:31:17;18.40;99.90
26479;DHT22;14163;-26.142;27.992;2022-08-05T07:33:47;18.40;99.90
26479;DHT22;14163;-26.142;27.992;2022-08-05T07:36:16;18.50;99.90
26479;DHT22;14163;-26.142;27.992;2022-08-05T07:38:45;18.70;99.90
26479;DHT22;14163;-26.142;27.992;2022-08-05T07:41:18;18.90;99.90
26479;DHT22;14163;-26.142;27.992;2022-08-05T07:43:47;18.90;99.90
26479;DHT22;14163;-26.142;27.992;2022-08-05T07:46:17;18.90;99.90
26479;DHT22;14163;-26.142;27.992;2022-08-05T07:48:46;18.90;99.90
26479;DHT22;14163;-26.142;27.992;2022-08-05T07:51:15;18.90;99.90
26479;DHT22;14163;-26.142;27.992;2022-08-05T07:53:45;19.00;99.90
26479;DHT22;14163;-26.142;27.992;2022-08-05T07:56:15;19.10;99.90
26479;DHT22;14163;-26.142;27.992;2022-08-05T07:58:45;19.30;99.90
26479;DHT22;14163;-26.142;27.992;2022-08-05T08:01:14;19.40;99.90
26479;DHT22;14163;-26.142;27.992;2022-08-05T08:03:43;19.60;99.90
26479;DHT22;14163;-26.142;27.992;2022-08-05T08:06:12;19.60;99.90
26479;DHT22;14163;-26.142;27.992;2022-08-05T08:08:42;19.60;99.90
26479;DHT22;14163;-26.142;27.992;2022-08-05T08:11:11;19.60;99.90
26479;DHT22;14163;-26.142;27.992;2022-08-05T08:13:42;19.70;99.90
26479;DHT22;14163;-26.142;27.992;2022-08-05T08:16:11;19.80;99.90
26479;DHT22;14163;-26.142;27.992;2022-08-05T08:18:41;19.70;99.90
26479;DHT22;14163;-26.142;27.992;2022-08-05T08:21:11;19.80;99.90
26479;DHT22;14163;-26.142;27.992;2022-08-05T08:23:40;19.90;99.90
26479;DHT22;14163;-26.142;27.992;2022-08-05T08:26:09;20.00;99.90
26479;DHT22;14163;-26.142;27.992;2022-08-05T08:28:38;20.00;99.90
26479;DHT22;14163;-26.142;27.992;2022-08-05T08:31:09;20.10;99.90
26479;DHT22;14163;-26.142;27.992;2022-08-05T08:33:39;20.10;99.90
26479;DHT22;14163;-26.142;27.992;2022-08-05T08:36:08;20.20;99.90
26479;DHT22;14163;-26.142;27.992;2022-08-05T08:38:37;20.30;99.90
26479;DHT22;14163;-26.142;27.992;2022-08-05T08:41:09;20.40;99.90
26479;DHT22;14163;-26.142;27.992;2022-08-05T08:43:43;20.40;99.90
26479;DHT22;14163;-26.142;27.992;2022-08-05T08:46:14;20.40;99.90
26479;DHT22;14163;-26.142;27.992;2022-08-05T08:48:46;20.70;99.90
26479;DHT22;14163;-26.142;27.992;2022-08-05T08:51:18;20.80;99.90
26479;DHT22;14163;-26.142;27.992;2022-08-05T08:53:48;21.00;99.90
26479;DHT22;14163;-26.142;27.992;2022-08-05T08:56:17;21.20;98.20
26479;DHT22;14163;-26.142;27.992;2022-08-05T08:58:47;21.20;99.90
26479;DHT22;14163;-26.142;27.992;2022-08-05T09:01:18;21.10;96.80
26479;DHT22;14163;-26.142;27.992;2022-08-05T09:03:48;21.10;96.60
26479;DHT22;14163;-26.142;27.992;2022-08-05T09:06:18;21.20;95.20
26479;DHT22;14163;-26.142;27.992;2022-08-05T09:08:48;21.30;93.40
26479;DHT22;14163;-26.142;27.992;2022-08-05T09:11:17;21.40;94.00
26479;DHT22;14163;-26.142;27.992;2022-08-05T09:13:46;21.40;93.50
26479;DHT22;14163;-26.142;27.992;2022-08-05T09:16:19;21.40;93.10
26479;DHT22;14163;-26.142;27.992;2022-08-05T09:18:48;21.50;92.80
26479;DHT22;14163;-26.142;27.992;2022-08-05T09:21:18;21.60;92.30
26479;DHT22;14163;-26.142;27.992;2022-08-05T09:24:01;21.70;90.90
26479;DHT22;14163;-26.142;27.992;2022-08-05T09:26:31;22.00;90.40
26479;DHT22;14163;-26.142;27.992;2022-08-05T09:29:03;22.10;90.30
26479;DHT22;14163;-26.142;27.992;2022-08-05T09:31:34;22.50;90.50
26479;DHT22;14163;-26.142;27.992;2022-08-05T09:34:04;22.80;90.30
26479;DHT22;14163;-26.142;27.992;2022-08-05T09:36:40;23.20;89.10
26479;DHT22;14163;-26.142;27.992;2022-08-05T09:39:12;24.00;88.70
26479;DHT22;14163;-26.142;27.992;2022-08-05T09:41:56;25.00;86.80
26479;DHT22;14163;-26.142;27.992;2022-08-05T09:44:36;26.80;79.90
26479;DHT22;14163;-26.142;27.992;2022-08-05T09:47:11;28.50;71.10
26479;DHT22;14163;-26.142;27.992;2022-08-05T09:49:42;29.50;64.70
26479;DHT22;14163;-26.142;27.992;2022-08-05T09:52:23;30.00;62.20
26479;DHT22;14163;-26.142;27.992;2022-08-05T09:54:54;30.50;58.80
26479;DHT22;14163;-26.142;27.992;2022-08-05T09:57:34;31.20;57.40
26479;DHT22;14163;-26.142;27.992;2022-08-05T10:00:09;31.80;56.20
26479;DHT22;14163;-26.142;27.992;2022-08-05T10:02:42;32.30;56.10
26479;DHT22;14163;-26.142;27.992;2022-08-05T10:05:13;32.90;55.20
26479;DHT22;14163;-26.142;27.992;2022-08-05T10:07:49;32.40;54.20
26479;DHT22;14163;-26.142;27.992;2022-08-05T10:10:20;32.40;53.60
26479;DHT22;14163;-26.142;27.992;2022-08-05T10:12:50;32.30;53.50
26479;DHT22;14163;-26.142;27.992;2022-08-05T10:15:24;33.00;52.70
26479;DHT22;14163;-26.142;27.992;2022-08-05T10:18:09;33.30;52.00
26479;DHT22;14163;-26.142;27.992;2022-08-05T10:20:41;33.10;52.30
26479;DHT22;14163;-26.142;27.992;2022-08-05T10:23:12;33.00;52.70
26479;DHT22;14163;-26.142;27.992;2022-08-05T10:25:41;32.50;53.10
26479;DHT22;14163;-26.142;27.992;2022-08-05T10:28:10;32.00;52.80
26479;DHT22;14163;-26.142;27.992;2022-08-05T10:30:40;31.80;53.90
26479;DHT22;14163;-26.142;27.992;2022-08-05T10:33:11;32.20;53.40
26479;DHT22;14163;-26.142;27.992;2022-08-05T10:35:40;32.40;51.10
26479;DHT22;14163;-26.142;27.992;2022-08-05T10:38:10;32.50;48.30
26479;DHT22;14163;-26.142;27.992;2022-08-05T10:40:45;32.30;48.10
26479;DHT22;14163;-26.142;27.992;2022-08-05T10:43:23;32.30;48.80
26479;DHT22;14163;-26.142;27.992;2022-08-05T10:45:56;32.60;48.40
26479;DHT22;14163;-26.142;27.992;2022-08-05T10:48:33;33.60;44.50
26479;DHT22;14163;-26.142;27.992;2022-08-05T10:51:04;34.40;43.00
26479;DHT22;14163;-26.142;27.992;2022-08-05T10:53:35;35.30;42.10
26479;DHT22;14163;-26.142;27.992;2022-08-05T10:56:06;35.60;42.10
26479;DHT22;14163;-26.142;27.992;2022-08-05T10:58:46;36.00;40.60
26479;DHT22;14163;-26.142;27.992;2022-08-05T11:01:15;36.50;40.60
26479;DHT22;14163;-26.142;27.992;2022-08-05T11:04:05;37.00;40.10
26479;DHT22;14163;-26.142;27.992;2022-08-05T11:06:42;37.50;39.60
26479;DHT22;14163;-26.142;27.992;2022-08-05T11:09:27;37.70;39.50
26479;DHT22;14163;-26.142;27.992;2022-08-05T11:11:56;37.50;38.70
26479;DHT22;14163;-26.142;27.992;2022-08-05T11:14:27;37.10;38.90
26479;DHT22;14163;-26.142;27.992;2022-08-05T11:17:29;37.20;38.90
26479;DHT22;14163;-26.142;27.992;2022-08-05T11:20:01;37.40;38.50
26479;DHT22;14163;-26.142;27.992;2022-08-05T11:22:43;37.70;38.10
26479;DHT22;14163;-26.142;27.992;2022-08-05T11:25:30;37.90;38.00
26479;DHT22;14163;-26.142;27.992;2022-08-05T11:28:38;38.10;36.80
26479;DHT22;14163;-26.142;27.992;2022-08-05T11:31:28;38.00;36.30
26479;DHT22;14163;-26.142;27.992;2022-08-05T11:34:03;37.80;36.40
26479;DHT22;14163;-26.142;27.992;2022-08-05T11:36:43;37.40;36.10
26479;DHT22;14163;-26.142;27.992;2022-08-05T11:39:14;37.20;35.70
26479;DHT22;14163;-26.142;27.992;2022-08-05T11:41:50;37.30;35.90
26479;DHT22;14163;-26.142;27.992;2022-08-05T11:44:20;36.60;35.10
26479;DHT22;14163;-26.142;27.992;2022-08-05T11:46:55;35.50;35.70
26479;DHT22;14163;-26.142;27.992;2022-08-05T11:49:25;34.90;36.40
26479;DHT22;14163;-26.142;27.992;2022-08-05T11:51:56;34.30;36.80
26479;DHT22;14163;-26.142;27.992;2022-08-05T11:54:26;33.70;36.70
26479;DHT22;14163;-26.142;27.992;2022-08-05T11:56:56;33.10;38.20
26479;DHT22;14163;-26.142;27.992;2022-08-05T11:59:28;32.60;38.50
26479;DHT22;14163;-26.142;27.992;2022-08-05T12:02:01;32.10;38.00
26479;DHT22;14163;-26.142;27.992;2022-08-05T12:04:38;31.50;38.60
26479;DHT22;14163;-26.142;27.992;2022-08-05T12:07:11;31.20;39.20
26479;DHT22;14163;-26.142;27.992;2022-08-05T12:09:42;30.70;38.70
26479;DHT22;14163;-26.142;27.992;2022-08-05T12:12:12;30.30;39.10
26479;DHT22;14163;-26.142;27.992;2022-08-05T12:14:42;29.90;39.30
26479;DHT22;14163;-26.142;27.992;2022-08-05T12:17:12;29.50;39.60
26479;DHT22;14163;-26.142;27.992;2022-08-05T12:19:42;29.20;39.90
26479;DHT22;14163;-26.142;27.992;2022-08-05T12:22:15;28.90;39.10
26479;DHT22;14163;-26.142;27.992;2022-08-05T12:24:46;28.80;39.80
26479;DHT22;14163;-26.142;27.992;2022-08-05T12:27:22;28.60;39.90
26479;DHT22;14163;-26.142;27.992;2022-08-05T12:30:03;28.60;40.20
26479;DHT22;14163;-26.142;27.992;2022-08-05T12:32:32;28.50;39.30
26479;DHT22;14163;-26.142;27.992;2022-08-05T12:35:03;28.40;36.40
26479;DHT22;14163;-26.142;27.992;2022-08-05T12:37:34;28.20;36.80
26479;DHT22;14163;-26.142;27.992;2022-08-05T12:40:07;28.10;37.40
26479;DHT22;14163;-26.142;27.992;2022-08-05T12:42:37;28.10;38.30
26479;DHT22;14163;-26.142;27.992;2022-08-05T12:45:08;28.10;38.40
26479;DHT22;14163;-26.142;27.992;2022-08-05T12:47:37;28.20;38.40
26479;DHT22;14163;-26.142;27.992;2022-08-05T12:50:13;28.10;38.50
26479;DHT22;14163;-26.142;27.992;2022-08-05T12:52:54;27.90;38.80
26479;DHT22;14163;-26.142;27.992;2022-08-05T12:55:27;28.00;39.50
26479;DHT22;14163;-26.142;27.992;2022-08-05T12:57:57;28.20;39.80
26479;DHT22;14163;-26.142;27.992;2022-08-05T13:00:27;28.30;39.40
26479;DHT22;14163;-26.142;27.992;2022-08-05T13:03:00;28.40;39.10
26479;DHT22;14163;-26.142;27.992;2022-08-05T13:05:30;28.40;39.10
26479;DHT22;14163;-26.142;27.992;2022-08-05T13:08:03;28.40;38.30
26479;DHT22;14163;-26.142;27.992;2022-08-05T13:10:33;28.40;39.00
26479;DHT22;14163;-26.142;27.992;2022-08-05T13:13:10;28.40;38.70
26479;DHT22;14163;-26.142;27.992;2022-08-05T13:15:39;28.40;39.30
26479;DHT22;14163;-26.142;27.992;2022-08-05T13:18:08;28.60;39.20
26479;DHT22;14163;-26.142;27.992;2022-08-05T13:20:38;28.60;38.70
26479;DHT22;14163;-26.142;27.992;2022-08-05T13:23:09;28.50;38.10
26479;DHT22;14163;-26.142;27.992;2022-08-05T13:25:39;28.50;38.70
26479;DHT22;14163;-26.142;27.992;2022-08-05T13:28:08;28.50;38.40
26479;DHT22;14163;-26.142;27.992;2022-08-05T13:30:38;28.50;37.90
26479;DHT22;14163;-26.142;27.992;2022-08-05T13:33:08;28.40;37.10
26479;DHT22;14163;-26.142;27.992;2022-08-05T13:35:37;28.20;36.60
26479;DHT22;14163;-26.142;27.992;2022-08-05T13:38:08;27.90;37.20
26479;DHT22;14163;-26.142;27.992;2022-08-05T13:40:37;27.70;37.30
26479;DHT22;14163;-26.142;27.992;2022-08-05T13:43:07;27.60;37.30
26479;DHT22;14163;-26.142;27.992;2022-08-05T13:45:37;27.50;37.80
26479;DHT22;14163;-26.142;27.992;2022-08-05T13:48:07;27.60;39.00
26479;DHT22;14163;-26.142;27.992;2022-08-05T13:50:37;27.70;39.30
26479;DHT22;14163;-26.142;27.992;2022-08-05T13:53:06;27.90;38.40
26479;DHT22;14163;-26.142;27.992;2022-08-05T13:55:37;28.00;39.10
26479;DHT22;14163;-26.142;27.992;2022-08-05T13:58:06;28.10;39.20
26479;DHT22;14163;-26.142;27.992;2022-08-05T14:00:35;28.20;38.60
26479;DHT22;14163;-26.142;27.992;2022-08-05T14:03:05;28.30;39.10
26479;DHT22;14163;-26.142;27.992;2022-08-05T14:05:34;28.40;38.10
26479;DHT22;14163;-26.142;27.992;2022-08-05T14:08:04;28.30;37.90
26479;DHT22;14163;-26.142;27.992;2022-08-05T14:10:33;28.30;37.80
26479;DHT22;14163;-26.142;27.992;2022-08-05T14:13:04;28.40;37.00
26479;DHT22;14163;-26.142;27.992;2022-08-05T14:15:35;28.30;37.10
26479;DHT22;14163;-26.142;27.992;2022-08-05T14:18:05;28.30;36.90
26479;DHT22;14163;-26.142;27.992;2022-08-05T14:20:34;28.20;37.00
26479;DHT22;14163;-26.142;27.992;2022-08-05T14:23:03;28.20;37.30
26479;DHT22;14163;-26.142;27.992;2022-08-05T14:25:32;28.30;37.90
26479;DHT22;14163;-26.142;27.992;2022-08-05T14:28:03;28.40;37.00
26479;DHT22;14163;-26.142;27.992;2022-08-05T14:30:33;28.50;36.70
26479;DHT22;14163;-26.142;27.992;2022-08-05T14:33:03;28.50;37.30
26479;DHT22;14163;-26.142;27.992;2022-08-05T14:35:32;28.60;37.90
26479;DHT22;14163;-26.142;27.992;2022-08-05T14:38:01;28.60;38.80
26479;DHT22;14163;-26.142;27.992;2022-08-05T14:40:31;28.70;38.20
26479;DHT22;14163;-26.142;27.992;2022-08-05T14:43:00;28.70;37.70
26479;DHT22;14163;-26.142;27.992;2022-08-05T14:45:31;28.70;36.70
26479;DHT22;14163;-26.142;27.992;2022-08-05T14:48:00;28.60;37.40
26479;DHT22;14163;-26.142;27.992;2022-08-05T14:50:29;28.60;35.60
26479;DHT22;14163;-26.142;27.992;2022-08-05T14:52:58;28.40;36.10
26479;DHT22;14163;-26.142;27.992;2022-08-05T14:55:27;28.40;36.80
26479;DHT22;14163;-26.142;27.992;2022-08-05T14:57:57;28.20;36.90
26479;DHT22;14163;-26.142;27.992;2022-08-05T15:00:26;28.30;36.80
26479;DHT22;14163;-26.142;27.992;2022-08-05T15:02:57;28.20;36.60
26479;DHT22;14163;-26.142;27.992;2022-08-05T15:05:26;28.10;35.80
26479;DHT22;14163;-26.142;27.992;2022-08-05T15:07:55;28.20;35.20
26479;DHT22;14163;-26.142;27.992;2022-08-05T15:10:25;28.20;35.20
26479;DHT22;14163;-26.142;27.992;2022-08-05T15:12:54;28.10;34.30
26479;DHT22;14163;-26.142;27.992;2022-08-05T15:15:25;28.10;34.10
26479;DHT22;14163;-26.142;27.992;2022-08-05T15:17:56;28.00;33.70
26479;DHT22;14163;-26.142;27.992;2022-08-05T15:20:26;27.90;33.90
26479;DHT22;14163;-26.142;27.992;2022-08-05T15:22:55;27.80;34.50
26479;DHT22;14163;-26.142;27.992;2022-08-05T15:25:24;27.70;34.80
26479;DHT22;14163;-26.142;27.992;2022-08-05T15:27:53;27.70;34.40